sensor_id;sensor_type;location;lat;lon;timestamp;P1;durP1;ratioP1;P2;durP2;ratioP2
22894;SDS011;11614;52.494;6.976;2022-09-28T00:03:34;21.97;;;12.67;;
22894;SDS011;11614;52.494;6.976;2022-09-28T00:06:02;23.70;;;12.77;;
22894;SDS011;11614;52.494;6.976;2022-09-28T00:08:29;22.33;;;13.17;;
22894;SDS011;11614;52.494;6.976;2022-09-28T00:10:55;23.80;;;14.07;;
22894;SDS011;11614;52.494;6.976;2022-09-28T00:13:21;22.83;;;12.80;;
22894;SDS011;11614;52.494;6.976;2022-09-28T00:15:57;25.13;;;12.87;;
22894;SDS011;11614;52.494;6.976;2022-09-28T00:18:23;27.13;;;14.87;;
22894;SDS011;11614;52.494;6.976;2022-09-28T00:20:58;23.87;;;14.50;;
22894;SDS011;11614;52.494;6.976;2022-09-28T00:23:32;24.63;;;13.90;;
22894;SDS011;11614;52.494;6.976;2022-09-28T00:26:03;23.27;;;12.93;;
22894;SDS011;11614;52.494;6.976;2022-09-28T00:28:29;27.57;;;14.20;;
22894;SDS011;11614;52.494;6.976;2022-09-28T00:30:55;23.83;;;13.60;;
22894;SDS011;11614;52.494;6.976;2022-09-28T00:33:24;27.13;;;14.63;;
22894;SDS011;11614;52.494;6.976;2022-09-28T00:35:57;24.80;;;15.10;;
22894;SDS011;11614;52.494;6.976;2022-09-28T00:38:26;27.67;;;15.03;;
22894;SDS011;11614;52.494;6.976;2022-09-28T00:40:52;26.93;;;14.83;;
22894;SDS011;11614;52.494;6.976;2022-09-28T00:43:19;30.37;;;17.60;;
22894;SDS011;11614;52.494;6.976;2022-09-28T00:45:58;27.40;;;15.93;;
22894;SDS011;11614;52.494;6.976;2022-09-28T00:48:26;24.67;;;15.37;;
22894;SDS011;11614;52.494;6.976;2022-09-28T00:50:56;27.37;;;15.37;;
22894;SDS011;11614;52.494;6.976;2022-09-28T00:53:24;32.37;;;15.60;;
22894;SDS011;11614;52.494;6.976;2022-09-28T00:55:55;28.53;;;15.37;;
22894;SDS011;11614;52.494;6.976;2022-09-28T00:58:31;30.07;;;16.53;;
22894;SDS011;11614;52.494;6.976;2022-09-28T01:01:00;27.63;;;14.97;;
22894;SDS011;11614;52.494;6.976;2022-09-28T01:03:27;29.17;;;15.57;;
22894;SDS011;11614;52.494;6.976;2022-09-28T01:05:54;28.43;;;16.23;;
22894;SDS011;11614;52.494;6.976;2022-09-28T01:08:22;28.33;;;15.97;;
22894;SDS011;11614;52.494;6.976;2022-09-28T01:10:51;26.87;;;15.43;;
22894;SDS011;11614;52.494;6.976;2022-09-28T01:13:17;28.97;;;15.90;;
22894;SDS011;11614;52.494;6.976;2022-09-28T01:15:48;29.53;;;16.07;;
22894;SDS011;11614;52.494;6.976;2022-09-28T01:21:00;28.77;;;15.83;;
22894;SDS011;11614;52.494;6.976;2022-09-28T01:31:48;27.23;;;16.07;;
22894;SDS011;11614;52.494;6.976;2022-09-28T01:34:30;28.33;;;15.87;;
22894;SDS011;11614;52.494;6.976;2022-09-28T01:37:03;24.63;;;15.17;;
22894;SDS011;11614;52.494;6.976;2022-09-28T01:39:35;27.50;;;15.37;;
22894;SDS011;11614;52.494;6.976;2022-09-28T01:42:12;29.23;;;15.23;;
22894;SDS011;11614;52.494;6.976;2022-09-28T01:44:44;27.47;;;14.97;;
22894;SDS011;11614;52.494;6.976;2022-09-28T01:47:14;26.97;;;15.67;;
22894;SDS011;11614;52.494;6.976;2022-09-28T01:49:47;31.73;;;15.40;;
22894;SDS011;11614;52.494;6.976;2022-09-28T01:53:09;28.27;;;15.43;;
22894;SDS011;11614;52.494;6.976;2022-09-28T01:55:42;29.83;;;17.03;;
22894;SDS011;11614;52.494;6.976;2022-09-28T01:58:20;32.13;;;17.53;;
22894;SDS011;11614;52.494;6.976;2022-09-28T02:00:59;33.10;;;16.80;;
22894;SDS011;11614;52.494;6.976;2022-09-28T02:03:33;30.40;;;16.07;;
22894;SDS011;11614;52.494;6.976;2022-09-28T02:06:03;29.43;;;16.87;;
22894;SDS011;11614;52.494;6.976;2022-09-28T02:08:36;31.63;;;16.90;;
22894;SDS011;11614;52.494;6.976;2022-09-28T02:11:14;29.33;;;17.23;;
22894;SDS011;11614;52.494;6.976;2022-09-28T02:13:52;34.03;;;17.53;;
22894;SDS011;11614;52.494;6.976;2022-09-28T02:16:28;32.93;;;17.73;;
22894;SDS011;11614;52.494;6.976;2022-09-28T02:19:12;35.93;;;18.57;;
22894;SDS011;11614;52.494;6.976;2022-09-28T02:24:29;32.20;;;18.53;;
22894;SDS011;11614;52.494;6.976;2022-09-28T02:27:09;35.83;;;17.27;;
22894;SDS011;11614;52.494;6.976;2022-09-28T02:29:39;30.47;;;16.80;;
22894;SDS011;11614;52.494;6.976;2022-09-28T02:32:05;30.10;;;17.37;;
22894;SDS011;11614;52.494;6.976;2022-09-28T02:34:31;31.97;;;16.87;;
22894;SDS011;11614;52.494;6.976;2022-09-28T02:36:58;31.47;;;17.53;;
22894;SDS011;11614;52.494;6.976;2022-09-28T02:39:24;33.67;;;18.00;;
22894;SDS011;11614;52.494;6.976;2022-09-28T02:41:53;35.63;;;18.73;;
22894;SDS011;11614;52.494;6.976;2022-09-28T02:49:38;31.97;;;17.30;;
22894;SDS011;11614;52.494;6.976;2022-09-28T02:55:17;35.90;;;19.17;;
22894;SDS011;11614;52.494;6.976;2022-09-28T02:58:02;36.80;;;19.97;;
22894;SDS011;11614;52.494;6.976;2022-09-28T03:00:43;38.53;;;20.00;;
22894;SDS011;11614;52.494;6.976;2022-09-28T03:03:35;37.63;;;19.93;;
22894;SDS011;11614;52.494;6.976;2022-09-28T03:06:18;35.70;;;20.20;;
22894;SDS011;11614;52.494;6.976;2022-09-28T03:09:09;34.73;;;18.23;;
22894;SDS011;11614;52.494;6.976;2022-09-28T03:11:37;34.33;;;18.70;;
22894;SDS011;11614;52.494;6.976;2022-09-28T03:14:09;33.60;;;17.27;;
22894;SDS011;11614;52.494;6.976;2022-09-28T03:16:35;33.17;;;18.97;;
22894;SDS011;11614;52.494;6.976;2022-09-28T03:19:01;35.43;;;18.00;;
22894;SDS011;11614;52.494;6.976;2022-09-28T03:21:27;34.03;;;18.03;;
22894;SDS011;11614;52.494;6.976;2022-09-28T03:23:53;34.37;;;18.30;;
22894;SDS011;11614;52.494;6.976;2022-09-28T03:26:19;35.53;;;18.63;;
22894;SDS011;11614;52.494;6.976;2022-09-28T03:28:45;33.43;;;18.63;;
22894;SDS011;11614;52.494;6.976;2022-09-28T03:31:11;38.33;;;19.83;;
22894;SDS011;11614;52.494;6.976;2022-09-28T03:33:37;32.07;;;18.20;;
22894;SDS011;11614;52.494;6.976;2022-09-28T03:36:02;35.83;;;18.10;;
22894;SDS011;11614;52.494;6.976;2022-09-28T03:38:28;34.80;;;17.60;;
22894;SDS011;11614;52.494;6.976;2022-09-28T03:40:57;38.17;;;20.77;;
22894;SDS011;11614;52.494;6.976;2022-09-28T03:43:24;35.37;;;19.17;;
22894;SDS011;11614;52.494;6.976;2022-09-28T03:45:54;36.97;;;19.63;;
22894;SDS011;11614;52.494;6.976;2022-09-28T03:48:22;32.83;;;18.53;;
22894;SDS011;11614;52.494;6.976;2022-09-28T03:50:51;31.57;;;17.17;;
22894;SDS011;11614;52.494;6.976;2022-09-28T03:53:17;36.97;;;16.80;;
22894;SDS011;11614;52.494;6.976;2022-09-28T03:55:43;37.40;;;20.20;;
22894;SDS011;11614;52.494;6.976;2022-09-28T03:58:09;33.80;;;17.17;;
22894;SDS011;11614;52.494;6.976;2022-09-28T04:00:36;33.37;;;16.90;;
22894;SDS011;11614;52.494;6.976;2022-09-28T04:03:02;41.23;;;21.80;;
22894;SDS011;11614;52.494;6.976;2022-09-28T04:05:28;40.10;;;19.03;;
22894;SDS011;11614;52.494;6.976;2022-09-28T04:07:54;45.00;;;21.73;;
22894;SDS011;11614;52.494;6.976;2022-09-28T04:10:21;41.37;;;21.57;;
22894;SDS011;11614;52.494;6.976;2022-09-28T04:12:47;41.70;;;20.97;;
22894;SDS011;11614;52.494;6.976;2022-09-28T04:15:15;39.20;;;20.40;;
22894;SDS011;11614;52.494;6.976;2022-09-28T04:17:41;41.27;;;21.00;;
22894;SDS011;11614;52.494;6.976;2022-09-28T04:20:07;44.73;;;21.97;;
22894;SDS011;11614;52.494;6.976;2022-09-28T04:22:33;26.53;;;12.70;;
22894;SDS011;11614;52.494;6.976;2022-09-28T04:25:01;27.03;;;13.83;;
22894;SDS011;11614;52.494;6.976;2022-09-28T04:27:28;39.23;;;20.27;;
22894;SDS011;11614;52.494;6.976;2022-09-28T04:30:12;48.80;;;23.77;;
22894;SDS011;11614;52.494;6.976;2022-09-28T04:32:38;41.83;;;18.03;;
22894;SDS011;11614;52.494;6.976;2022-09-28T04:35:04;46.93;;;22.37;;
22894;SDS011;11614;52.494;6.976;2022-09-28T04:37:30;38.77;;;20.60;;
22894;SDS011;11614;52.494;6.976;2022-09-28T04:39:56;42.67;;;22.20;;
22894;SDS011;11614;52.494;6.976;2022-09-28T04:42:21;47.07;;;21.60;;
22894;SDS011;11614;52.494;6.976;2022-09-28T04:44:47;45.37;;;22.10;;
22894;SDS011;11614;52.494;6.976;2022-09-28T04:47:13;38.17;;;17.57;;
22894;SDS011;11614;52.494;6.976;2022-09-28T04:49:39;45.17;;;22.73;;
22894;SDS011;11614;52.494;6.976;2022-09-28T04:52:05;37.93;;;17.40;;
22894;SDS011;11614;52.494;6.976;2022-09-28T04:54:31;46.43;;;22.30;;
22894;SDS011;11614;52.494;6.976;2022-09-28T04:56:56;44.03;;;22.50;;
22894;SDS011;11614;52.494;6.976;2022-09-28T04:59:22;42.90;;;19.87;;
22894;SDS011;11614;52.494;6.976;2022-09-28T05:01:48;41.83;;;20.43;;
22894;SDS011;11614;52.494;6.976;2022-09-28T05:04:14;48.20;;;21.93;;
22894;SDS011;11614;52.494;6.976;2022-09-28T05:06:41;43.93;;;21.60;;
22894;SDS011;11614;52.494;6.976;2022-09-28T05:09:07;40.23;;;19.83;;
22894;SDS011;11614;52.494;6.976;2022-09-28T05:11:33;41.43;;;19.13;;
22894;SDS011;11614;52.494;6.976;2022-09-28T05:13:59;50.97;;;23.90;;
22894;SDS011;11614;52.494;6.976;2022-09-28T05:16:25;37.97;;;19.40;;
22894;SDS011;11614;52.494;6.976;2022-09-28T05:18:55;49.87;;;23.00;;
22894;SDS011;11614;52.494;6.976;2022-09-28T05:21:20;48.43;;;23.43;;
22894;SDS011;11614;52.494;6.976;2022-09-28T05:23:49;38.30;;;18.30;;
22894;SDS011;11614;52.494;6.976;2022-09-28T05:26:15;42.00;;;21.80;;
22894;SDS011;11614;52.494;6.976;2022-09-28T05:28:40;42.50;;;21.90;;
22894;SDS011;11614;52.494;6.976;2022-09-28T05:31:07;46.40;;;23.90;;
22894;SDS011;11614;52.494;6.976;2022-09-28T05:33:32;38.83;;;19.70;;
22894;SDS011;11614;52.494;6.976;2022-09-28T05:35:58;40.67;;;20.43;;
22894;SDS011;11614;52.494;6.976;2022-09-28T05:38:24;41.97;;;19.80;;
22894;SDS011;11614;52.494;6.976;2022-09-28T05:40:50;36.67;;;18.70;;
22894;SDS011;11614;52.494;6.976;2022-09-28T05:43:16;26.00;;;13.53;;
22894;SDS011;11614;52.494;6.976;2022-09-28T05:45:42;32.87;;;16.57;;
22894;SDS011;11614;52.494;6.976;2022-09-28T05:48:08;35.67;;;17.77;;
22894;SDS011;11614;52.494;6.976;2022-09-28T05:50:34;37.00;;;18.20;;
22894;SDS011;11614;52.494;6.976;2022-09-28T05:53:00;35.23;;;18.40;;
22894;SDS011;11614;52.494;6.976;2022-09-28T05:55:31;37.00;;;18.10;;
22894;SDS011;11614;52.494;6.976;2022-09-28T05:57:57;39.07;;;18.53;;
22894;SDS011;11614;52.494;6.976;2022-09-28T06:00:25;36.57;;;18.37;;
22894;SDS011;11614;52.494;6.976;2022-09-28T06:03:10;32.83;;;16.20;;
22894;SDS011;11614;52.494;6.976;2022-09-28T06:05:37;32.40;;;15.43;;
22894;SDS011;11614;52.494;6.976;2022-09-28T06:08:07;29.83;;;13.87;;
22894;SDS011;11614;52.494;6.976;2022-09-28T06:10:34;37.17;;;16.07;;
22894;SDS011;11614;52.494;6.976;2022-09-28T06:13:00;40.87;;;17.90;;
22894;SDS011;11614;52.494;6.976;2022-09-28T06:15:27;35.93;;;16.17;;
22894;SDS011;11614;52.494;6.976;2022-09-28T06:17:58;35.27;;;15.93;;
22894;SDS011;11614;52.494;6.976;2022-09-28T06:20:25;25.37;;;12.37;;
22894;SDS011;11614;52.494;6.976;2022-09-28T06:22:52;35.73;;;18.00;;
22894;SDS011;11614;52.494;6.976;2022-09-28T06:25:18;35.23;;;16.43;;
22894;SDS011;11614;52.494;6.976;2022-09-28T06:30:20;35.63;;;17.20;;
22894;SDS011;11614;52.494;6.976;2022-09-28T06:32:45;33.50;;;17.30;;
22894;SDS011;11614;52.494;6.976;2022-09-28T06:35:11;21.77;;;9.90;;
22894;SDS011;11614;52.494;6.976;2022-09-28T06:37:42;41.60;;;20.00;;
22894;SDS011;11614;52.494;6.976;2022-09-28T06:40:09;47.00;;;22.97;;
22894;SDS011;11614;52.494;6.976;2022-09-28T06:42:34;43.53;;;19.00;;
22894;SDS011;11614;52.494;6.976;2022-09-28T06:45:01;40.23;;;15.37;;
22894;SDS011;11614;52.494;6.976;2022-09-28T06:47:28;54.60;;;23.87;;
22894;SDS011;11614;52.494;6.976;2022-09-28T06:49:56;56.63;;;23.47;;
22894;SDS011;11614;52.494;6.976;2022-09-28T06:52:22;55.07;;;22.87;;
22894;SDS011;11614;52.494;6.976;2022-09-28T06:54:48;49.93;;;22.40;;
22894;SDS011;11614;52.494;6.976;2022-09-28T06:57:13;48.03;;;19.83;;
22894;SDS011;11614;52.494;6.976;2022-09-28T06:59:39;50.67;;;23.57;;
22894;SDS011;11614;52.494;6.976;2022-09-28T07:02:05;48.60;;;22.90;;
22894;SDS011;11614;52.494;6.976;2022-09-28T07:04:34;38.70;;;18.50;;
22894;SDS011;11614;52.494;6.976;2022-09-28T07:07:00;34.80;;;18.27;;
22894;SDS011;11614;52.494;6.976;2022-09-28T07:09:26;34.50;;;16.30;;
22894;SDS011;11614;52.494;6.976;2022-09-28T07:11:52;41.77;;;19.80;;
22894;SDS011;11614;52.494;6.976;2022-09-28T07:14:18;38.67;;;18.30;;
22894;SDS011;11614;52.494;6.976;2022-09-28T07:16:45;40.47;;;19.13;;
22894;SDS011;11614;52.494;6.976;2022-09-28T07:19:11;47.40;;;22.67;;
22894;SDS011;11614;52.494;6.976;2022-09-28T07:21:38;52.50;;;24.67;;
22894;SDS011;11614;52.494;6.976;2022-09-28T07:24:03;48.33;;;23.17;;
22894;SDS011;11614;52.494;6.976;2022-09-28T07:26:29;41.37;;;18.10;;
22894;SDS011;11614;52.494;6.976;2022-09-28T07:28:57;35.07;;;16.40;;
22894;SDS011;11614;52.494;6.976;2022-09-28T07:31:23;36.60;;;18.33;;
22894;SDS011;11614;52.494;6.976;2022-09-28T07:33:49;34.23;;;15.80;;
22894;SDS011;11614;52.494;6.976;2022-09-28T07:36:15;35.03;;;15.80;;
22894;SDS011;11614;52.494;6.976;2022-09-28T07:38:44;32.30;;;17.73;;
22894;SDS011;11614;52.494;6.976;2022-09-28T07:41:10;30.00;;;15.97;;
22894;SDS011;11614;52.494;6.976;2022-09-28T07:43:36;26.37;;;13.17;;
22894;SDS011;11614;52.494;6.976;2022-09-28T07:46:03;34.07;;;16.23;;
22894;SDS011;11614;52.494;6.976;2022-09-28T07:48:33;36.87;;;19.57;;
22894;SDS011;11614;52.494;6.976;2022-09-28T07:51:01;46.53;;;22.53;;
22894;SDS011;11614;52.494;6.976;2022-09-28T07:53:27;47.50;;;19.87;;
22894;SDS011;11614;52.494;6.976;2022-09-28T07:55:55;46.27;;;20.67;;
22894;SDS011;11614;52.494;6.976;2022-09-28T07:58:29;58.87;;;26.90;;
22894;SDS011;11614;52.494;6.976;2022-09-28T08:00:57;53.27;;;26.23;;
22894;SDS011;11614;52.494;6.976;2022-09-28T08:03:25;52.70;;;26.40;;
22894;SDS011;11614;52.494;6.976;2022-09-28T08:05:55;46.83;;;22.30;;
22894;SDS011;11614;52.494;6.976;2022-09-28T08:08:25;37.63;;;18.17;;
22894;SDS011;11614;52.494;6.976;2022-09-28T08:10:51;46.23;;;24.30;;
22894;SDS011;11614;52.494;6.976;2022-09-28T08:13:17;37.40;;;18.83;;
22894;SDS011;11614;52.494;6.976;2022-09-28T08:15:43;35.43;;;17.33;;
22894;SDS011;11614;52.494;6.976;2022-09-28T08:18:15;37.60;;;19.50;;
22894;SDS011;11614;52.494;6.976;2022-09-28T08:20:42;34.17;;;18.53;;
22894;SDS011;11614;52.494;6.976;2022-09-28T08:23:26;36.47;;;18.63;;
22894;SDS011;11614;52.494;6.976;2022-09-28T08:25:51;30.73;;;18.17;;
22894;SDS011;11614;52.494;6.976;2022-09-28T08:28:18;32.90;;;16.97;;
22894;SDS011;11614;52.494;6.976;2022-09-28T08:30:44;28.73;;;15.53;;
22894;SDS011;11614;52.494;6.976;2022-09-28T08:33:11;30.07;;;17.00;;
22894;SDS011;11614;52.494;6.976;2022-09-28T08:35:37;30.07;;;16.77;;
22894;SDS011;11614;52.494;6.976;2022-09-28T08:38:04;20.27;;;10.63;;
22894;SDS011;11614;52.494;6.976;2022-09-28T08:40:29;22.37;;;13.13;;
22894;SDS011;11614;52.494;6.976;2022-09-28T08:43:08;22.33;;;13.57;;
22894;SDS011;11614;52.494;6.976;2022-09-28T08:45:37;21.40;;;11.90;;
22894;SDS011;11614;52.494;6.976;2022-09-28T08:50:59;16.77;;;8.80;;
22894;SDS011;11614;52.494;6.976;2022-09-28T08:55:51;17.47;;;10.67;;
22894;SDS011;11614;52.494;6.976;2022-09-28T08:58:25;16.30;;;10.57;;
22894;SDS011;11614;52.494;6.976;2022-09-28T09:00:54;17.63;;;9.87;;
22894;SDS011;11614;52.494;6.976;2022-09-28T09:03:28;13.80;;;9.50;;
22894;SDS011;11614;52.494;6.976;2022-09-28T09:06:07;13.50;;;8.13;;
22894;SDS011;11614;52.494;6.976;2022-09-28T09:08:53;16.73;;;8.93;;
22894;SDS011;11614;52.494;6.976;2022-09-28T09:19:45;14.90;;;7.23;;
22894;SDS011;11614;52.494;6.976;2022-09-28T09:22:16;13.93;;;7.70;;
22894;SDS011;11614;52.494;6.976;2022-09-28T09:24:49;15.20;;;8.10;;
22894;SDS011;11614;52.494;6.976;2022-09-28T09:27:26;13.07;;;6.70;;
22894;SDS011;11614;52.494;6.976;2022-09-28T09:30:03;12.57;;;7.60;;
22894;SDS011;11614;52.494;6.976;2022-09-28T09:45:34;10.27;;;5.87;;
22894;SDS011;11614;52.494;6.976;2022-09-28T09:48:06;10.07;;;6.57;;
22894;SDS011;11614;52.494;6.976;2022-09-28T09:50:45;9.80;;;6.37;;
22894;SDS011;11614;52.494;6.976;2022-09-28T09:53:22;12.10;;;7.50;;
22894;SDS011;11614;52.494;6.976;2022-09-28T09:55:49;9.27;;;6.07;;
22894;SDS011;11614;52.494;6.976;2022-09-28T09:58:29;10.20;;;5.83;;
22894;SDS011;11614;52.494;6.976;2022-09-28T10:00:58;7.47;;;5.40;;
22894;SDS011;11614;52.494;6.976;2022-09-28T10:03:29;7.63;;;4.37;;
22894;SDS011;11614;52.494;6.976;2022-09-28T10:06:11;7.80;;;5.23;;
22894;SDS011;11614;52.494;6.976;2022-09-28T10:08:46;7.27;;;5.20;;
22894;SDS011;11614;52.494;6.976;2022-09-28T10:11:17;9.18;;;5.65;;
22894;SDS011;11614;52.494;6.976;2022-09-28T10:13:46;8.02;;;5.50;;
22894;SDS011;11614;52.494;6.976;2022-09-28T10:16:13;5.97;;;4.88;;
22894;SDS011;11614;52.494;6.976;2022-09-28T10:18:40;6.95;;;5.50;;
22894;SDS011;11614;52.494;6.976;2022-09-28T10:21:10;6.95;;;5.18;;
22894;SDS011;11614;52.494;6.976;2022-09-28T10:23:36;7.75;;;5.55;;
22894;SDS011;11614;52.494;6.976;2022-09-28T10:26:03;6.32;;;5.38;;
22894;SDS011;11614;52.494;6.976;2022-09-28T10:28:33;7.57;;;6.20;;
22894;SDS011;11614;52.494;6.976;2022-09-28T10:31:02;8.20;;;6.80;;
22894;SDS011;11614;52.494;6.976;2022-09-28T10:33:46;7.30;;;5.95;;
22894;SDS011;11614;52.494;6.976;2022-09-28T10:36:12;6.97;;;6.28;;
22894;SDS011;11614;52.494;6.976;2022-09-28T10:38:39;7.97;;;6.10;;
22894;SDS011;11614;52.494;6.976;2022-09-28T10:41:12;6.28;;;5.45;;
22894;SDS011;11614;52.494;6.976;2022-09-28T10:43:53;6.57;;;4.93;;
22894;SDS011;11614;52.494;6.976;2022-09-28T10:46:30;9.27;;;5.70;;
22894;SDS011;11614;52.494;6.976;2022-09-28T10:48:57;6.90;;;5.20;;
22894;SDS011;11614;52.494;6.976;2022-09-28T10:54:09;6.03;;;4.63;;
22894;SDS011;11614;52.494;6.976;2022-09-28T10:56:38;5.90;;;3.43;;
22894;SDS011;11614;52.494;6.976;2022-09-28T10:59:35;6.83;;;4.67;;
22894;SDS011;11614;52.494;6.976;2022-09-28T11:01:54;6.00;;;4.40;;
22894;SDS011;11614;52.494;6.976;2022-09-28T11:04:22;5.93;;;4.60;;
22894;SDS011;11614;52.494;6.976;2022-09-28T11:06:49;5.40;;;3.67;;
22894;SDS011;11614;52.494;6.976;2022-09-28T11:11:44;6.73;;;4.27;;
22894;SDS011;11614;52.494;6.976;2022-09-28T11:19:39;4.63;;;3.83;;
22894;SDS011;11614;52.494;6.976;2022-09-28T11:22:23;5.05;;;3.53;;
22894;SDS011;11614;52.494;6.976;2022-09-28T11:24:50;3.70;;;2.47;;
22894;SDS011;11614;52.494;6.976;2022-09-28T11:27:25;2.83;;;1.87;;
22894;SDS011;11614;52.494;6.976;2022-09-28T11:29:53;4.77;;;2.63;;
22894;SDS011;11614;52.494;6.976;2022-09-28T11:32:22;4.93;;;3.10;;
22894;SDS011;11614;52.494;6.976;2022-09-28T11:34:48;6.43;;;3.83;;
22894;SDS011;11614;52.494;6.976;2022-09-28T11:37:20;6.47;;;3.67;;
22894;SDS011;11614;52.494;6.976;2022-09-28T11:42:33;4.07;;;3.33;;
22894;SDS011;11614;52.494;6.976;2022-09-28T11:47:56;6.77;;;4.50;;
22894;SDS011;11614;52.494;6.976;2022-09-28T11:53:20;5.43;;;4.53;;
22894;SDS011;11614;52.494;6.976;2022-09-28T11:55:53;5.03;;;4.13;;
22894;SDS011;11614;52.494;6.976;2022-09-28T11:58:32;4.53;;;3.90;;
22894;SDS011;11614;52.494;6.976;2022-09-28T12:03:38;5.00;;;4.50;;
22894;SDS011;11614;52.494;6.976;2022-09-28T12:06:06;5.27;;;3.70;;
22894;SDS011;11614;52.494;6.976;2022-09-28T12:08:35;4.33;;;3.33;;
22894;SDS011;11614;52.494;6.976;2022-09-28T12:13:44;5.97;;;3.37;;
22894;SDS011;11614;52.494;6.976;2022-09-28T12:19:00;4.63;;;4.23;;
22894;SDS011;11614;52.494;6.976;2022-09-28T12:21:32;4.93;;;4.43;;
22894;SDS011;11614;52.494;6.976;2022-09-28T12:24:18;5.82;;;4.30;;
22894;SDS011;11614;52.494;6.976;2022-09-28T12:29:17;5.93;;;4.20;;
22894;SDS011;11614;52.494;6.976;2022-09-28T12:34:20;3.92;;;2.70;;
22894;SDS011;11614;52.494;6.976;2022-09-28T12:47:43;2.90;;;2.60;;
22894;SDS011;11614;52.494;6.976;2022-09-28T12:53:09;2.03;;;1.80;;
22894;SDS011;11614;52.494;6.976;2022-09-28T12:55:51;1.80;;;1.70;;
22894;SDS011;11614;52.494;6.976;2022-09-28T13:00:48;2.33;;;2.13;;
22894;SDS011;11614;52.494;6.976;2022-09-28T13:13:51;1.63;;;1.53;;
22894;SDS011;11614;52.494;6.976;2022-09-28T13:16:33;1.63;;;1.53;;
22894;SDS011;11614;52.494;6.976;2022-09-28T13:24:18;1.52;;;1.42;;
22894;SDS011;11614;52.494;6.976;2022-09-28T13:26:51;1.95;;;1.80;;
22894;SDS011;11614;52.494;6.976;2022-09-28T13:29:18;3.25;;;3.13;;
22894;SDS011;11614;52.494;6.976;2022-09-28T13:31:50;2.38;;;2.25;;
22894;SDS011;11614;52.494;6.976;2022-09-28T13:34:18;1.48;;;1.23;;
22894;SDS011;11614;52.494;6.976;2022-09-28T13:37:06;1.40;;;1.20;;
22894;SDS011;11614;52.494;6.976;2022-09-28T13:39:34;2.08;;;1.25;;
22894;SDS011;11614;52.494;6.976;2022-09-28T13:42:01;1.48;;;0.98;;
22894;SDS011;11614;52.494;6.976;2022-09-28T13:44:32;1.55;;;0.90;;
22894;SDS011;11614;52.494;6.976;2022-09-28T13:47:03;1.93;;;1.60;;
22894;SDS011;11614;52.494;6.976;2022-09-28T13:52:19;1.47;;;1.10;;
22894;SDS011;11614;52.494;6.976;2022-09-28T13:57:23;1.00;;;0.90;;
22894;SDS011;11614;52.494;6.976;2022-09-28T14:02:38;1.63;;;0.80;;
22894;SDS011;11614;52.494;6.976;2022-09-28T14:05:30;2.33;;;1.07;;
22894;SDS011;11614;52.494;6.976;2022-09-28T14:07:55;1.83;;;0.77;;
22894;SDS011;11614;52.494;6.976;2022-09-28T14:10:29;2.20;;;0.90;;
22894;SDS011;11614;52.494;6.976;2022-09-28T14:13:09;1.90;;;0.80;;
22894;SDS011;11614;52.494;6.976;2022-09-28T14:18:13;1.00;;;0.50;;
22894;SDS011;11614;52.494;6.976;2022-09-28T14:26:13;1.53;;;0.20;;
22894;SDS011;11614;52.494;6.976;2022-09-28T14:28:51;0.53;;;0.20;;
22894;SDS011;11614;52.494;6.976;2022-09-28T14:31:25;1.23;;;0.40;;
22894;SDS011;11614;52.494;6.976;2022-09-28T14:33:55;1.03;;;0.30;;
22894;SDS011;11614;52.494;6.976;2022-09-28T14:36:23;1.57;;;0.50;;
22894;SDS011;11614;52.494;6.976;2022-09-28T14:39:17;0.63;;;0.40;;
22894;SDS011;11614;52.494;6.976;2022-09-28T14:42:09;0.30;;;0.20;;
22894;SDS011;11614;52.494;6.976;2022-09-28T14:47:31;1.10;;;0.40;;
22894;SDS011;11614;52.494;6.976;2022-09-28T14:49:59;0.70;;;0.37;;
22894;SDS011;11614;52.494;6.976;2022-09-28T14:55:27;1.37;;;0.60;;
22894;SDS011;11614;52.494;6.976;2022-09-28T14:57:54;1.83;;;0.90;;
22894;SDS011;11614;52.494;6.976;2022-09-28T15:00:22;1.37;;;0.60;;
22894;SDS011;11614;52.494;6.976;2022-09-28T15:02:49;1.13;;;0.60;;
22894;SDS011;11614;52.494;6.976;2022-09-28T15:05:23;1.67;;;0.50;;
22894;SDS011;11614;52.494;6.976;2022-09-28T15:07:52;0.73;;;0.40;;
22894;SDS011;11614;52.494;6.976;2022-09-28T15:10:31;1.73;;;0.60;;
22894;SDS011;11614;52.494;6.976;2022-09-28T15:12:58;0.77;;;0.40;;
22894;SDS011;11614;52.494;6.976;2022-09-28T15:15:47;0.90;;;0.40;;
22894;SDS011;11614;52.494;6.976;2022-09-28T15:20:40;2.70;;;0.90;;
22894;SDS011;11614;52.494;6.976;2022-09-28T15:23:22;2.87;;;1.13;;
22894;SDS011;11614;52.494;6.976;2022-09-28T15:25:52;1.53;;;0.60;;
22894;SDS011;11614;52.494;6.976;2022-09-28T15:28:19;1.47;;;0.70;;
22894;SDS011;11614;52.494;6.976;2022-09-28T15:30:48;2.63;;;1.10;;
22894;SDS011;11614;52.494;6.976;2022-09-28T15:36:07;0.43;;;0.27;;
22894;SDS011;11614;52.494;6.976;2022-09-28T15:38:37;0.70;;;0.30;;
22894;SDS011;11614;52.494;6.976;2022-09-28T15:41:05;2.83;;;1.50;;
22894;SDS011;11614;52.494;6.976;2022-09-28T15:43:33;3.77;;;2.27;;
22894;SDS011;11614;52.494;6.976;2022-09-28T15:46:05;2.53;;;1.10;;
22894;SDS011;11614;52.494;6.976;2022-09-28T15:51:17;3.47;;;2.50;;
22894;SDS011;11614;52.494;6.976;2022-09-28T15:56:17;2.67;;;0.90;;
22894;SDS011;11614;52.494;6.976;2022-09-28T15:58:43;2.60;;;1.37;;
22894;SDS011;11614;52.494;6.976;2022-09-28T16:01:36;2.83;;;2.07;;
22894;SDS011;11614;52.494;6.976;2022-09-28T16:09:33;2.17;;;1.23;;
22894;SDS011;11614;52.494;6.976;2022-09-28T16:12:18;2.40;;;1.60;;
22894;SDS011;11614;52.494;6.976;2022-09-28T16:14:48;5.70;;;3.47;;
22894;SDS011;11614;52.494;6.976;2022-09-28T16:17:17;8.77;;;5.73;;
22894;SDS011;11614;52.494;6.976;2022-09-28T16:19:46;6.13;;;4.30;;
22894;SDS011;11614;52.494;6.976;2022-09-28T16:22:15;6.20;;;4.73;;
22894;SDS011;11614;52.494;6.976;2022-09-28T16:24:52;2.73;;;1.37;;
22894;SDS011;11614;52.494;6.976;2022-09-28T16:27:23;3.60;;;2.77;;
22894;SDS011;11614;52.494;6.976;2022-09-28T16:30:11;3.70;;;2.27;;
22894;SDS011;11614;52.494;6.976;2022-09-28T16:32:44;2.40;;;1.63;;
22894;SDS011;11614;52.494;6.976;2022-09-28T16:37:53;9.50;;;5.30;;
22894;SDS011;11614;52.494;6.976;2022-09-28T16:40:21;3.80;;;1.60;;
22894;SDS011;11614;52.494;6.976;2022-09-28T16:42:47;6.60;;;4.53;;
22894;SDS011;11614;52.494;6.976;2022-09-28T16:45:17;4.80;;;3.30;;
22894;SDS011;11614;52.494;6.976;2022-09-28T16:47:44;9.60;;;7.03;;
22894;SDS011;11614;52.494;6.976;2022-09-28T16:50:12;5.37;;;2.60;;
22894;SDS011;11614;52.494;6.976;2022-09-28T16:52:39;8.57;;;6.57;;
22894;SDS011;11614;52.494;6.976;2022-09-28T16:55:24;7.77;;;5.20;;
22894;SDS011;11614;52.494;6.976;2022-09-28T16:57:50;3.20;;;2.20;;
22894;SDS011;11614;52.494;6.976;2022-09-28T17:00:17;2.10;;;1.60;;
22894;SDS011;11614;52.494;6.976;2022-09-28T17:02:45;3.83;;;2.23;;
22894;SDS011;11614;52.494;6.976;2022-09-28T17:05:12;10.07;;;6.63;;
22894;SDS011;11614;52.494;6.976;2022-09-28T17:07:39;6.80;;;3.90;;
22894;SDS011;11614;52.494;6.976;2022-09-28T17:10:16;4.00;;;2.70;;
22894;SDS011;11614;52.494;6.976;2022-09-28T17:12:43;5.03;;;1.87;;
22894;SDS011;11614;52.494;6.976;2022-09-28T17:15:09;2.53;;;1.60;;
22894;SDS011;11614;52.494;6.976;2022-09-28T17:17:35;2.53;;;1.43;;
22894;SDS011;11614;52.494;6.976;2022-09-28T17:20:22;2.73;;;1.20;;
22894;SDS011;11614;52.494;6.976;2022-09-28T17:22:50;3.23;;;1.60;;
22894;SDS011;11614;52.494;6.976;2022-09-28T17:25:17;21.67;;;12.63;;
22894;SDS011;11614;52.494;6.976;2022-09-28T17:27:46;14.07;;;9.43;;